Time;durP1;ratioP1;P1;durP2;ratioP2;P2;SDS_P1;SDS_P2;PMS_P1;PMS_P2;Temp;Humidity;BMP_temperature;BMP_pressure;BME280_temperature;BME280_humidity;BME280_pressure;Samples;Min_cycle;Max_cycle;Signal;HPM_P1;HPM_P2
2022/05/21 00:00:37;;;;;;;9.13;5.60;;;;;;;14.77;65.64;99854.69;1748189;80;21045;-71
2022/05/21 00:03:05;;;;;;;7.17;4.83;;;;;;;14.74;65.68;99850.43;1765566;80;21548;-71
2022/05/21 00:05:33;;;;;;;7.10;4.70;;;;;;;14.69;65.75;99858.06;1764840;80;21858;-72
2022/05/21 00:08:00;;;;;;;8.53;4.87;;;;;;;14.64;65.79;99846.09;1760499;80;21698;-71
2022/05/21 00:10:28;;;;;;;6.77;5.00;;;;;;;14.62;65.84;99842.91;1763593;80;21226;-71
2022/05/21 00:12:55;;;;;;;7.53;4.80;;;;;;;14.58;65.92;99851.84;1763583;80;21844;-71
2022/05/21 00:15:25;;;;;;;6.80;4.70;;;;;;;14.54;65.94;99847.63;1763755;80;21299;-71
2022/05/21 00:17:52;;;;;;;7.50;4.97;;;;;;;14.50;65.90;99849.30;1761977;80;21345;-70
2022/05/21 00:23:21;;;;;;;8.03;4.67;;;;;;;14.39;65.85;99853.30;1766981;80;21317;-72
2022/05/21 00:25:57;;;;;;;8.50;4.67;;;;;;;14.32;66.07;99852.36;1750802;80;21240;-72
2022/05/21 00:28:25;;;;;;;7.90;5.10;;;;;;;14.29;66.27;99845.68;1762652;80;21779;-72
2022/05/21 00:30:52;;;;;;;7.40;5.00;;;;;;;14.27;66.37;99837.11;1767370;80;21065;-72
2022/05/21 00:33:19;;;;;;;6.83;4.87;;;;;;;14.26;66.35;99837.42;1763794;80;21194;-72
2022/05/21 00:35:48;;;;;;;6.43;4.97;;;;;;;14.24;66.35;99837.70;1765374;80;21609;-72
2022/05/21 00:38:16;;;;;;;6.08;4.50;;;;;;;14.23;66.39;99830.75;1765281;79;21253;-72
2022/05/21 00:40:44;;;;;;;7.13;5.00;;;;;;;14.20;66.40;99838.62;1760369;80;21522;-71
2022/05/21 00:43:54;;;;;;;8.87;5.33;;;;;;;14.17;66.42;99835.18;1759569;80;21264;-70
2022/05/21 00:46:25;;;;;;;9.73;5.07;;;;;;;14.12;66.48;99837.43;1756095;80;21268;-70
2022/05/21 00:49:23;;;;;;;6.97;5.10;;;;;;;14.06;66.51;99846.67;1765069;80;21582;-70
2022/05/21 00:52:10;;;;;;;8.30;5.20;;;;;;;13.98;66.61;99843.31;1762995;80;21026;-70
2022/05/21 00:54:45;;;;;;;7.33;4.90;;;;;;;13.92;66.76;99839.13;1750316;80;21194;-71
2022/05/21 00:57:30;;;;;;;8.33;5.23;;;;;;;13.86;66.93;99837.11;1765411;80;21097;-71
2022/05/21 01:00:10;;;;;;;6.75;4.95;;;;;;;13.82;67.09;99846.30;1760903;80;21249;-70
2022/05/21 01:02:47;;;;;;;7.47;5.03;;;;;;;13.79;67.18;99840.17;1765910;80;21089;-73
2022/05/21 01:05:15;;;;;;;6.33;4.70;;;;;;;13.77;67.24;99845.58;1752026;80;21663;-72
2022/05/21 01:07:43;;;;;;;8.28;5.10;;;;;;;13.74;67.28;99853.67;1766498;80;21205;-73
2022/05/21 01:10:12;;;;;;;7.08;4.92;;;;;;;13.70;67.38;99843.83;1761103;80;21509;-72
2022/05/21 01:12:42;;;;;;;7.97;5.30;;;;;;;13.69;67.48;99850.27;1751261;81;21173;-72
2022/05/21 01:15:13;;;;;;;11.95;5.28;;;;;;;13.70;67.54;99851.33;1754771;80;21143;-72
2022/05/21 01:17:40;;;;;;;8.00;4.90;;;;;;;13.71;67.57;99845.41;1755402;80;21034;-72
2022/05/21 01:20:11;;;;;;;8.65;5.50;;;;;;;13.70;67.58;99850.55;1766481;80;21096;-72
2022/05/21 01:22:42;;;;;;;7.35;4.97;;;;;;;13.69;67.57;99855.64;1760150;80;21034;-72
2022/05/21 01:25:10;;;;;;;7.12;4.97;;;;;;;13.68;67.58;99858.88;1764330;80;21034;-73
2022/05/21 01:27:39;;;;;;;9.00;5.28;;;;;;;13.65;67.61;99854.09;1750625;80;22155;-70
2022/05/21 01:30:09;;;;;;;8.10;5.12;;;;;;;13.64;67.66;99847.14;1764990;80;20998;-71
2022/05/21 01:32:36;;;;;;;7.50;4.78;;;;;;;13.64;67.66;99844.45;1761705;80;21090;-72
2022/05/21 01:35:04;;;;;;;7.95;5.10;;;;;;;13.64;67.62;99849.03;1758729;80;21065;-71
2022/05/21 01:37:31;;;;;;;9.23;4.85;;;;;;;13.62;67.63;99842.59;1763520;80;21595;-70
2022/05/21 01:39:58;;;;;;;7.25;4.30;;;;;;;13.59;67.57;99845.34;1765858;80;21232;-69
2022/05/21 01:42:25;;;;;;;7.50;4.60;;;;;;;13.54;67.59;99843.29;1764719;80;21030;-70
2022/05/21 01:44:52;;;;;;;6.47;4.78;;;;;;;13.51;67.63;99851.38;1761608;80;21097;-71
2022/05/21 01:47:20;;;;;;;7.12;4.60;;;;;;;13.46;67.77;99840.74;1764297;80;21065;-71
2022/05/21 01:49:49;;;;;;;6.53;4.62;;;;;;;13.46;67.92;99839.40;1757128;80;21089;-71
2022/05/21 01:52:16;;;;;;;7.78;5.00;;;;;;;13.44;68.04;99834.86;1763900;80;21296;-70
2022/05/21 01:54:46;;;;;;;8.03;4.80;;;;;;;13.43;68.20;99835.17;1765889;80;21458;-71
2022/05/21 01:57:13;;;;;;;7.67;5.13;;;;;;;13.43;68.34;99842.67;1765953;80;20954;-71
2022/05/21 01:59:43;;;;;;;7.40;5.10;;;;;;;13.45;68.40;99833.77;1766610;80;21257;-71
2022/05/21 02:02:11;;;;;;;6.67;4.30;;;;;;;13.46;68.46;99835.38;1764236;80;21069;-71
2022/05/21 02:04:38;;;;;;;6.80;4.28;;;;;;;13.44;68.58;99836.20;1763081;80;21129;-72
2022/05/21 02:07:05;;;;;;;7.90;4.40;;;;;;;13.42;68.75;99834.34;1758201;80;20943;-71
2022/05/21 02:09:32;;;;;;;7.63;4.90;;;;;;;13.38;68.95;99828.77;1715918;82;21609;-72
2022/05/21 02:12:00;;;;;;;6.58;4.78;;;;;;;13.33;69.16;99830.77;1713191;82;21536;-71
2022/05/21 02:14:29;;;;;;;7.60;4.70;;;;;;;13.34;69.26;99833.69;1765682;79;21039;-71
2022/05/21 02:16:56;;;;;;;9.53;5.10;;;;;;;13.36;69.35;99830.97;1760025;81;21250;-71
2022/05/21 02:19:24;;;;;;;8.45;4.87;;;;;;;13.38;69.38;99834.69;1761908;80;21600;-71
2022/05/21 02:21:51;;;;;;;7.37;4.75;;;;;;;13.40;69.44;99834.41;1767130;80;21113;-72
2022/05/21 02:24:18;;;;;;;6.97;4.78;;;;;;;13.41;69.48;99826.06;1751294;80;21005;-71
2022/05/21 02:26:45;;;;;;;6.90;4.67;;;;;;;13.44;69.52;99822.00;1763815;80;20990;-71
2022/05/21 02:29:13;;;;;;;7.77;5.13;;;;;;;13.48;69.53;99834.52;1764734;80;21049;-71
2022/05/21 02:31:40;;;;;;;7.92;5.08;;;;;;;13.52;69.51;99830.19;1764520;80;21274;-72
2022/05/21 02:34:10;;;;;;;8.77;4.67;;;;;;;13.55;69.51;99821.52;1765404;80;20967;-71
2022/05/21 02:39:26;;;;;;;7.50;4.95;;;;;;;13.60;69.49;99823.33;1765279;80;21125;-72
2022/05/21 02:41:53;;;;;;;7.90;5.07;;;;;;;13.66;69.50;99815.45;1760005;80;21934;-72
2022/05/21 02:44:20;;;;;;;9.63;4.77;;;;;;;13.70;69.48;99823.16;1766782;80;21306;-72
2022/05/21 02:46:51;;;;;;;6.87;4.97;;;;;;;13.75;69.55;99823.05;1760111;80;21503;-72
2022/05/21 02:49:17;;;;;;;7.83;4.90;;;;;;;13.81;69.67;99823.21;1766239;80;22028;-71
2022/05/21 02:51:45;;;;;;;8.07;5.13;;;;;;;13.94;69.84;99824.33;1766751;80;20995;-72
2022/05/21 02:54:14;;;;;;;7.45;4.75;;;;;;;14.10;69.88;99829.41;1750807;80;21240;-72
2022/05/21 02:56:48;;;;;;;9.07;5.10;;;;;;;14.28;69.86;99825.30;1764641;80;21030;-72
2022/05/21 02:59:17;;;;;;;8.50;5.07;;;;;;;14.48;69.61;99817.92;1761105;80;21712;-72
2022/05/21 03:01:44;;;;;;;7.70;5.13;;;;;;;14.66;69.35;99822.38;1764349;80;21270;-71
2022/05/21 03:04:12;;;;;;;7.73;4.53;;;;;;;14.85;69.07;99818.77;1764198;80;21182;-71
2022/05/21 03:06:39;;;;;;;7.13;4.10;;;;;;;15.07;68.70;99820.14;1750692;80;21253;-71
2022/05/21 03:11:51;;;;;;;7.17;4.47;;;;;;;15.59;67.34;99807.01;1758036;81;21275;-71
2022/05/21 03:14:19;;;;;;;7.80;4.83;;;;;;;15.92;66.40;99801.34;1765592;80;21786;-71
2022/05/21 03:16:47;;;;;;;6.00;4.10;;;;;;;16.19;65.50;99799.00;1756549;80;21270;-72
2022/05/21 03:19:14;;;;;;;9.90;4.80;;;;;;;16.43;64.70;99802.61;1764705;80;21601;-72
2022/05/21 03:21:41;;;;;;;6.60;4.73;;;;;;;16.63;63.48;99802.56;1766119;80;21212;-72
2022/05/21 03:24:08;;;;;;;6.23;4.10;;;;;;;16.81;62.94;99796.13;1766108;80;21235;-73
2022/05/21 03:26:36;;;;;;;8.17;4.20;;;;;;;16.96;61.98;99793.48;1766599;80;21229;-70
2022/05/21 03:29:03;;;;;;;8.03;4.50;;;;;;;17.10;61.30;99792.75;1767676;80;21836;-72
2022/05/21 03:31:31;;;;;;;6.73;4.37;;;;;;;17.25;60.81;99786.08;1766561;80;21397;-72
2022/05/21 03:33:59;;;;;;;8.87;4.97;;;;;;;17.36;60.37;99786.53;1764122;80;21395;-71
2022/05/21 03:36:26;;;;;;;6.17;4.43;;;;;;;17.47;59.80;99789.14;1747428;80;21457;-72
2022/05/21 03:38:55;;;;;;;7.23;4.50;;;;;;;17.69;58.78;99790.02;1757829;80;21494;-70
2022/05/21 03:41:24;;;;;;;7.13;4.30;;;;;;;17.79;58.77;99778.33;1762736;80;21488;-71
2022/05/21 03:43:54;;;;;;;5.90;4.07;;;;;;;17.79;58.77;99778.33;1763881;80;22157;-72
2022/05/21 03:46:24;;;;;;;10.82;4.78;;;;;;;17.91;58.56;99773.59;1763969;80;22844;-71
2022/05/21 03:48:51;;;;;;;7.93;4.47;;;;;;;18.00;58.24;99778.41;1759916;80;21038;-71
2022/05/21 03:51:20;;;;;;;7.07;4.57;;;;;;;18.11;57.96;99769.37;1762957;80;22122;-73
2022/05/21 03:53:47;;;;;;;9.87;4.33;;;;;;;18.17;57.37;99767.28;1763573;80;21776;-70
2022/05/21 03:56:14;;;;;;;6.50;4.40;;;;;;;18.25;57.30;99764.50;1762185;80;21595;-69
2022/05/21 03:58:42;;;;;;;6.57;4.30;;;;;;;18.30;57.17;99760.84;1763956;80;22259;-71
2022/05/21 04:01:14;;;;;;;8.40;4.40;;;;;;;18.34;57.05;99760.41;1750159;81;22252;-71
2022/05/21 04:03:43;;;;;;;6.63;4.57;;;;;;;18.39;56.84;99759.41;1756521;81;21785;-71
2022/05/21 04:06:12;;;;;;;6.67;4.70;;;;;;;18.42;56.74;99755.48;1761139;80;22148;-72
2022/05/21 04:08:41;;;;;;;7.67;4.30;;;;;;;18.48;56.67;99749.33;1766413;80;22236;-72
2022/05/21 04:11:08;;;;;;;7.47;4.93;;;;;;;18.58;56.56;99744.88;1755421;81;21667;-71
2022/05/21 04:13:38;;;;;;;8.73;4.47;;;;;;;18.68;56.23;99736.36;1765092;80;21046;-72
2022/05/21 04:16:06;;;;;;;6.87;4.30;;;;;;;18.82;56.22;99718.55;1762186;80;20967;-71
2022/05/21 04:18:34;;;;;;;5.70;3.90;;;;;;;18.98;55.89;99720.84;1760260;79;21061;-72
2022/05/21 04:21:04;;;;;;;7.40;4.17;;;;;;;19.14;55.58;99726.98;1766138;80;20995;-72
2022/05/21 04:23:32;;;;;;;7.30;4.10;;;;;;;19.27;55.14;99735.93;1761054;80;21086;-70
2022/05/21 04:25:59;;;;;;;8.50;4.87;;;;;;;19.32;54.97;99731.67;1760237;81;21501;-71
2022/05/21 04:28:27;;;;;;;6.57;4.60;;;;;;;19.36;54.54;99729.30;1764073;80;21050;-70
2022/05/21 04:30:54;;;;;;;8.27;4.50;;;;;;;19.40;54.51;99720.72;1766341;80;21053;-70
2022/05/21 04:33:22;;;;;;;7.73;4.47;;;;;;;19.42;54.60;99733.94;1764279;80;22151;-71
2022/05/21 04:38:36;;;;;;;6.47;4.53;;;;;;;19.41;54.59;99736.40;1764295;80;20987;-70
2022/05/21 04:41:03;;;;;;;6.23;4.70;;;;;;;19.40;54.61;99741.59;1765966;80;20955;-71
2022/05/21 04:43:30;;;;;;;6.07;4.20;;;;;;;19.42;54.73;99740.14;1763352;80;21081;-71
2022/05/21 04:45:57;;;;;;;6.40;4.10;;;;;;;19.47;54.77;99739.12;1767003;80;21097;-72
2022/05/21 04:48:25;;;;;;;9.37;4.60;;;;;;;19.52;54.73;99740.27;1758389;80;21402;-71
2022/05/21 04:50:52;;;;;;;6.73;4.27;;;;;;;19.59;54.51;99736.44;1758713;80;20979;-71
2022/05/21 04:53:19;;;;;;;8.80;4.57;;;;;;;19.66;54.41;99739.41;1765896;80;21034;-70
2022/05/21 04:55:47;;;;;;;6.30;4.40;;;;;;;19.76;54.22;99743.59;1764011;80;21034;-70
2022/05/21 04:58:14;;;;;;;6.53;4.50;;;;;;;19.83;53.92;99727.55;1755955;80;21664;-70
2022/05/21 05:00:41;;;;;;;6.27;4.30;;;;;;;19.94;53.87;99729.80;1764187;80;21061;-71
2022/05/21 05:03:13;;;;;;;6.67;4.40;;;;;;;20.00;53.59;99721.67;1765033;80;21038;-71
2022/05/21 05:05:45;;;;;;;8.05;4.58;;;;;;;20.06;53.70;99710.83;1765393;80;21536;-71
2022/05/21 05:08:12;;;;;;;;;;;;;;;20.18;53.47;99710.81;1731780;81;21096;-70
2022/05/21 05:10:39;;;;;;;8.10;4.80;;;;;;;20.28;53.30;99700.84;1761342;80;21092;-71
2022/05/21 05:13:08;;;;;;;9.77;4.57;;;;;;;20.42;53.00;99696.41;1764774;80;21018;-72
2022/05/21 05:15:37;;;;;;;6.87;4.40;;;;;;;20.55;52.68;99699.90;1766186;80;21556;-72
2022/05/21 05:18:07;;;;;;;6.37;3.80;;;;;;;20.62;52.62;99700.09;1761899;80;21006;-71
2022/05/21 05:20:35;;;;;;;6.83;4.40;;;;;;;20.69;52.24;99692.14;1764448;80;21106;-72
2022/05/21 05:23:02;;;;;;;7.97;4.50;;;;;;;20.76;51.98;99689.65;1765688;80;21206;-71
2022/05/21 05:25:30;;;;;;;7.70;4.47;;;;;;;20.87;51.99;99690.50;1764125;80;21045;-71
2022/05/21 05:27:59;;;;;;;7.03;4.60;;;;;;;20.97;51.76;99686.70;1766433;80;21026;-72
2022/05/21 05:30:26;;;;;;;8.77;4.70;;;;;;;21.06;51.35;99680.55;1760046;80;20975;-72
2022/05/21 05:32:53;;;;;;;5.40;4.33;;;;;;;21.14;51.36;99673.37;1764531;80;21049;-71
2022/05/21 05:35:20;;;;;;;7.87;4.50;;;;;;;21.22;51.21;99681.94;1767413;80;21719;-71
2022/05/21 05:37:49;;;;;;;6.57;4.50;;;;;;;21.28;50.88;99670.22;1763707;80;21022;-71
2022/05/21 05:40:20;;;;;;;9.20;4.70;;;;;;;21.31;50.47;99676.31;1766295;80;21053;-71
2022/05/21 05:42:48;;;;;;;6.87;4.50;;;;;;;21.34;50.71;99677.55;1722166;82;21550;-71
2022/05/21 05:45:16;;;;;;;6.03;4.50;;;;;;;21.39;50.88;99675.94;1725868;81;21090;-72
2022/05/21 05:47:45;;;;;;;7.07;3.97;;;;;;;21.46;50.75;99672.06;1725644;81;21173;-71
2022/05/21 05:50:12;;;;;;;8.40;5.00;;;;;;;21.58;50.59;99673.30;1725170;81;20991;-71
2022/05/21 05:52:46;;;;;;;8.00;4.57;;;;;;;21.65;50.44;99668.05;1738317;81;21018;-71
2022/05/21 05:55:16;;;;;;;21.10;16.10;;;;;;;21.77;50.58;99663.06;1725213;81;21010;-71
2022/05/21 05:57:43;;;;;;;19.07;16.30;;;;;;;21.90;50.17;99657.73;1710827;81;21089;-71
2022/05/21 06:00:11;;;;;;;22.73;18.50;;;;;;;22.04;49.75;99653.74;1723464;81;21457;-71
2022/05/21 06:02:58;;;;;;;61.53;47.30;;;;;;;22.12;49.28;99645.39;1723987;81;21613;-71
2022/05/21 06:05:31;;;;;;;46.67;35.33;;;;;;;22.20;49.59;99648.48;1708872;81;21027;-72
2022/05/21 06:08:05;;;;;;;35.73;24.40;;;;;;;22.32;49.23;99639.41;1718427;81;21015;-72
2022/05/21 06:10:36;;;;;;;42.27;30.13;;;;;;;22.44;49.06;99637.10;1720304;81;21656;-72
2022/05/21 06:13:05;;;;;;;54.03;38.10;;;;;;;22.56;48.89;99634.23;1735991;81;21542;-71
2022/05/21 06:15:34;;;;;;;42.57;31.40;;;;;;;22.67;48.43;99633.06;1724270;81;20955;-71
2022/05/21 06:18:14;;;;;;;29.80;21.50;;;;;;;22.80;48.49;99636.42;1724716;81;21160;-72
2022/05/21 06:20:42;;;;;;;16.57;11.70;;;;;;;22.96;48.51;99630.89;1722908;81;21510;-71
2022/05/21 06:23:08;;;;;;;22.63;15.83;;;;;;;23.06;48.22;99626.20;1726231;81;21018;-72
2022/05/21 06:25:36;;;;;;;15.97;11.83;;;;;;;23.17;48.31;99625.82;1727335;81;21818;-73
2022/05/21 06:28:04;;;;;;;15.90;12.00;;;;;;;23.30;47.64;99629.92;1726189;81;21904;-72
2022/05/21 06:30:34;;;;;;;19.73;14.53;;;;;;;23.42;47.40;99624.84;1724907;81;20990;-72
2022/05/21 06:33:29;;;;;;;15.20;10.37;;;;;;;23.51;47.17;99624.01;1725596;81;21553;-72
2022/05/21 06:36:16;;;;;;;9.73;6.53;;;;;;;23.56;47.10;99619.63;1723704;81;21063;-73
2022/05/21 06:38:44;;;;;;;8.60;5.40;;;;;;;23.64;46.51;99614.47;1724440;81;21509;-72
2022/05/21 06:41:12;;;;;;;7.17;4.90;;;;;;;23.73;46.00;99614.82;1721037;81;21047;-70
2022/05/21 06:43:41;;;;;;;5.37;4.40;;;;;;;23.78;46.05;99608.45;1722975;81;21403;-71
2022/05/21 06:46:09;;;;;;;6.83;4.20;;;;;;;23.82;45.87;99613.40;1724686;81;21073;-71
2022/05/21 06:48:36;;;;;;;12.33;4.97;;;;;;;23.84;45.56;99618.47;1720185;81;21074;-72
2022/05/21 06:51:08;;;;;;;8.30;6.07;;;;;;;23.85;45.90;99617.30;1724212;81;21639;-71
2022/05/21 06:53:36;;;;;;;11.33;7.37;;;;;;;23.94;45.75;99618.41;1724657;81;21086;-73
2022/05/21 06:56:12;;;;;;;16.47;10.77;;;;;;;24.00;45.71;99621.80;1705217;82;20968;-73
2022/05/21 06:58:39;;;;;;;24.50;15.73;;;;;;;24.11;45.52;99613.16;1761041;80;21026;-74
2022/05/21 07:01:06;;;;;;;26.73;17.40;;;;;;;24.19;44.42;99616.00;1762969;80;20987;-73
2022/05/21 07:03:35;;;;;;;11.87;8.73;;;;;;;24.13;44.84;99610.66;1765688;80;21122;-72
2022/05/21 07:08:51;;;;;;;21.00;11.90;;;;;;;24.21;44.83;99615.03;1763673;80;21124;-72
2022/05/21 07:11:19;;;;;;;22.47;12.63;;;;;;;24.21;44.55;99619.91;1757148;80;21508;-73
2022/05/21 07:13:47;;;;;;;15.57;10.20;;;;;;;24.15;44.99;99615.16;1760407;80;20935;-72
2022/05/21 07:16:14;;;;;;;12.80;7.40;;;;;;;24.23;44.66;99605.33;1766725;80;21228;-71
2022/05/21 07:18:41;;;;;;;10.90;6.00;;;;;;;24.33;44.66;99611.48;1766725;80;21132;-72
2022/05/21 07:21:10;;;;;;;7.73;4.63;;;;;;;24.41;44.44;99611.00;1762829;80;21097;-71
2022/05/21 07:23:37;;;;;;;7.87;4.50;;;;;;;24.54;44.36;99608.80;1760569;80;21532;-71
2022/05/21 07:26:04;;;;;;;7.53;4.93;;;;;;;24.65;44.08;99606.98;1764839;80;21046;-72
2022/05/21 07:28:31;;;;;;;5.47;4.20;;;;;;;24.74;43.68;99606.66;1765560;80;21113;-72
2022/05/21 07:30:58;;;;;;;9.43;6.80;;;;;;;24.79;43.66;99606.33;1766336;80;21022;-70
2022/05/21 07:33:26;;;;;;;7.67;5.53;;;;;;;24.81;43.68;99594.46;1758015;80;21018;-73
2022/05/21 07:35:53;;;;;;;9.73;4.60;;;;;;;24.84;43.86;99586.85;1763504;80;21026;-72
2022/05/21 07:38:21;;;;;;;7.90;5.23;;;;;;;24.93;43.47;99579.13;1764912;80;20998;-73
2022/05/21 07:40:48;;;;;;;5.80;4.93;;;;;;;25.04;43.24;99573.75;1759067;80;21132;-71
2022/05/21 07:43:22;;;;;;;9.93;6.53;;;;;;;25.14;42.94;99575.84;1762534;80;21074;-73
2022/05/21 07:45:49;;;;;;;9.53;6.67;;;;;;;25.23;43.26;99572.76;1749134;80;21034;-72
2022/05/21 07:48:18;;;;;;;8.90;4.93;;;;;;;25.35;42.49;99564.84;1759198;80;21037;-71
2022/05/21 07:50:51;;;;;;;7.07;4.00;;;;;;;25.41;42.18;99566.84;1760631;80;20990;-71
2022/05/21 07:53:21;;;;;;;7.50;4.33;;;;;;;25.35;41.86;99561.52;1751060;80;21403;-72
2022/05/21 07:55:51;;;;;;;5.97;4.00;;;;;;;25.28;42.09;99564.22;1759939;79;20987;-71
2022/05/21 07:58:19;;;;;;;14.63;10.00;;;;;;;25.30;42.14;99556.98;1768292;80;21007;-71
2022/05/21 08:00:47;;;;;;;12.97;8.30;;;;;;;25.37;42.04;99548.27;1750120;80;21481;-71
2022/05/21 08:03:14;;;;;;;10.67;6.80;;;;;;;25.43;41.95;99553.55;1756966;80;20998;-70
2022/05/21 08:05:43;;;;;;;8.97;5.50;;;;;;;25.55;41.52;99541.53;1762043;80;21142;-72
2022/05/21 08:08:10;;;;;;;9.97;6.30;;;;;;;25.69;41.38;99539.44;1764723;80;21081;-71
2022/05/21 08:10:39;;;;;;;12.33;6.77;;;;;;;25.84;40.92;99532.12;1759590;80;21034;-71
2022/05/21 08:13:06;;;;;;;9.40;6.27;;;;;;;25.94;40.69;99520.44;1770432;79;21172;-71
2022/05/21 08:15:35;;;;;;;6.97;4.30;;;;;;;26.08;40.91;99519.09;1762503;79;22294;-72
2022/05/21 08:18:04;;;;;;;6.17;3.97;;;;;;;26.26;40.16;99514.24;1763712;80;21142;-72
2022/05/21 08:20:32;;;;;;;5.93;4.13;;;;;;;26.37;40.25;99519.95;1757392;80;21033;-71
2022/05/21 08:28:32;;;;;;;8.07;4.97;;;;;;;26.69;38.18;99519.80;1767240;79;21227;-72
2022/05/21 08:31:00;;;;;;;7.00;4.30;;;;;;;26.73;38.16;99517.27;1766126;79;22225;-71
2022/05/21 08:33:27;;;;;;;10.57;5.10;;;;;;;26.78;38.42;99522.34;1765634;79;21022;-72
2022/05/21 08:35:54;;;;;;;5.53;4.33;;;;;;;26.85;37.87;99514.14;1763829;80;21033;-72
2022/05/21 08:38:21;;;;;;;5.87;3.67;;;;;;;26.96;37.48;99513.34;1754512;80;20999;-71
2022/05/21 08:41:14;;;;;;;9.70;5.03;;;;;;;27.06;37.57;99517.44;1765531;80;22077;-72
2022/05/21 08:44:04;;;;;;;8.45;4.37;;;;;;;27.22;37.35;99510.80;1750522;81;22169;-72
2022/05/21 08:47:06;;;;;;;7.40;4.63;;;;;;;27.43;36.98;99511.31;1761879;80;21060;-72
2022/05/21 08:49:37;;;;;;;8.80;4.60;;;;;;;27.56;36.74;99501.48;1737036;82;21579;-71
2022/05/21 08:52:21;;;;;;;5.60;3.72;;;;;;;27.71;36.94;99496.73;1765952;80;21105;-72
2022/05/21 08:54:49;;;;;;;5.33;3.77;;;;;;;27.88;36.27;99489.63;1760761;80;21027;-72
2022/05/21 08:57:27;;;;;;;6.93;3.73;;;;;;;27.99;36.51;99491.11;1764911;80;21100;-72
2022/05/21 09:00:05;;;;;;;7.13;3.53;;;;;;;28.08;36.22;99492.05;1763646;80;21093;-71
2022/05/21 09:02:35;;;;;;;6.80;3.20;;;;;;;28.09;35.00;99494.97;1765119;80;20986;-71
2022/05/21 09:05:06;;;;;;;5.70;3.40;;;;;;;27.96;35.43;99488.38;1734589;81;20999;-72
2022/05/21 09:08:10;;;;;;;5.83;3.47;;;;;;;27.89;35.50;99482.94;1765355;80;21030;-72
2022/05/21 09:11:04;;;;;;;8.30;3.30;;;;;;;27.82;35.71;99477.67;1761732;80;21042;-71
2022/05/21 09:13:56;;;;;;;7.03;4.20;;;;;;;27.93;36.06;99478.20;1746604;81;21576;-72
2022/05/21 09:19:08;;;;;;;7.67;3.60;;;;;;;28.17;34.83;99473.17;1764486;80;21541;-73
2022/05/21 09:21:46;;;;;;;6.03;3.40;;;;;;;28.10;35.05;99472.41;1764717;80;20963;-72
2022/05/21 09:24:36;;;;;;;6.40;3.50;;;;;;;27.95;34.91;99467.02;1752105;80;21808;-73
2022/05/21 09:27:05;;;;;;;7.60;3.47;;;;;;;27.77;34.98;99460.27;1687555;83;21293;-73
2022/05/21 09:29:35;;;;;;;5.60;3.90;;;;;;;27.46;35.81;99457.83;1761462;80;21003;-71
2022/05/21 09:32:21;;;;;;;5.80;3.95;;;;;;;27.40;36.31;99458.63;1768675;80;21069;-72
2022/05/21 09:35:17;;;;;;;7.43;4.50;;;;;;;27.34;36.60;99461.80;1768747;80;21505;-72
2022/05/21 09:37:44;;;;;;;6.33;3.77;;;;;;;27.21;36.64;99468.09;1732378;82;21162;-72
2022/05/21 09:40:34;;;;;;;5.90;3.40;;;;;;;26.97;37.05;99470.47;1734469;82;21658;-73
2022/05/21 09:45:59;;;;;;;7.83;4.50;;;;;;;26.43;37.89;99487.50;1719514;82;20978;-72
2022/05/21 09:48:27;;;;;;;9.47;4.90;;;;;;;26.10;38.68;99481.78;1689612;83;21054;-71
2022/05/21 09:50:59;;;;;;;8.50;5.73;;;;;;;25.88;39.13;99500.09;1720581;83;21056;-72
2022/05/21 09:53:36;;;;;;;9.27;5.23;;;;;;;25.68;40.42;99529.09;1733287;82;20985;-71
2022/05/21 09:56:20;;;;;;;7.90;4.53;;;;;;;25.32;44.54;99578.69;1730494;82;20954;-69
2022/05/21 09:58:50;;;;;;;6.27;3.90;;;;;;;24.52;48.22;99553.23;1757571;80;21458;-69
2022/05/21 10:01:41;;;;;;;6.50;4.23;;;;;;;23.52;51.76;99564.25;1754141;80;21042;-70
2022/05/21 10:04:24;;;;;;;7.27;4.83;;;;;;;22.81;54.35;99550.89;1762366;80;20983;-68
2022/05/21 10:06:56;;;;;;;8.65;4.72;;;;;;;22.15;57.31;99564.48;1761256;80;21078;-70
2022/05/21 10:12:26;;;;;;;8.23;5.13;;;;;;;21.21;61.63;99568.20;1722970;82;20966;-70
2022/05/21 10:15:08;;;;;;;8.80;6.50;;;;;;;20.93;63.43;99577.83;1733576;82;21488;-69
2022/05/21 10:17:42;;;;;;;12.23;6.97;;;;;;;20.69;64.39;99565.97;1759474;80;21141;-68
2022/05/21 10:20:31;;;;;;;12.10;6.90;;;;;;;20.54;65.26;99555.91;1756538;80;21061;-70
2022/05/21 10:23:32;;;;;;;9.07;6.63;;;;;;;20.47;66.17;99552.98;1765030;80;21045;-69
2022/05/21 10:26:06;;;;;;;10.20;6.67;;;;;;;20.37;67.22;99554.27;1764272;80;21026;-70
2022/05/21 10:28:46;;;;;;;7.57;6.10;;;;;;;20.28;67.98;99544.14;1763541;80;21186;-69
2022/05/21 10:31:36;;;;;;;6.30;5.67;;;;;;;20.22;68.85;99549.02;1763550;80;21288;-70
2022/05/21 10:34:28;;;;;;;8.53;5.30;;;;;;;20.18;69.41;99538.66;1766024;80;21078;-70
2022/05/21 10:37:31;;;;;;;9.13;6.20;;;;;;;20.13;70.06;99527.47;1747632;80;21062;-69
2022/05/21 10:40:07;;;;;;;8.97;6.00;;;;;;;20.12;70.35;99506.14;1765425;80;21089;-70
2022/05/21 10:42:39;;;;;;;9.67;7.10;;;;;;;20.18;70.46;99484.42;1762450;79;21156;-70
2022/05/21 10:45:28;;;;;;;9.17;6.13;;;;;;;20.29;70.59;99490.13;1755233;80;21478;-70
2022/05/21 10:48:22;;;;;;;8.13;6.10;;;;;;;20.38;70.70;99488.82;1765562;80;21351;-70
2022/05/21 10:51:27;;;;;;;8.30;6.87;;;;;;;20.48;70.82;99475.31;1764312;80;20979;-70
2022/05/21 10:54:29;;;;;;;11.60;8.57;;;;;;;20.58;70.97;99470.75;1760411;80;21042;-71
2022/05/21 10:57:24;;;;;;;19.13;14.13;;;;;;;20.69;71.11;99460.14;1763779;80;20924;-71
2022/05/21 11:00:12;;;;;;;15.47;12.03;;;;;;;20.78;71.22;99454.55;1759192;80;21263;-71
2022/05/21 11:03:11;;;;;;;9.70;8.10;;;;;;;20.87;71.32;99459.80;1762218;80;21078;-71
2022/05/21 11:06:07;;;;;;;9.73;6.90;;;;;;;20.90;71.25;99465.88;1765618;80;21164;-70
2022/05/21 11:09:13;;;;;;;8.53;6.43;;;;;;;20.91;71.18;99456.59;1765821;80;21070;-71
2022/05/21 11:11:58;;;;;;;8.73;6.40;;;;;;;20.91;71.08;99453.88;1751612;80;21002;-70
2022/05/21 11:14:50;;;;;;;8.13;6.27;;;;;;;20.89;71.13;99451.50;1764544;80;21490;-71
2022/05/21 11:17:35;;;;;;;9.93;6.67;;;;;;;20.94;71.15;99449.88;1762392;80;20936;-71
2022/05/21 11:20:13;;;;;;;8.83;6.30;;;;;;;21.05;71.27;99429.75;1763142;80;21589;-71
2022/05/21 11:23:20;;;;;;;11.03;9.03;;;;;;;21.25;71.31;99419.13;1760178;80;20999;-71
2022/05/21 11:26:00;;;;;;;8.73;7.40;;;;;;;21.48;71.44;99400.80;1750155;81;21556;-71
2022/05/21 11:28:47;;;;;;;10.30;8.30;;;;;;;21.78;71.10;99402.34;1752216;81;21466;-72
2022/05/21 11:37:19;;;;;;;8.40;6.60;;;;;;;22.01;70.71;99401.81;1766473;80;21022;-71
2022/05/21 11:39:23;;;;;;;9.10;7.30;;;;;;;22.81;68.62;99390.27;1758013;81;21073;-71
2022/05/21 11:42:04;;;;;;;7.77;6.33;;;;;;;23.03;67.80;99397.58;1767232;81;21657;-72
2022/05/21 11:47:49;;;;;;;7.80;5.80;;;;;;;23.32;66.13;99383.75;1763337;80;21049;-73
2022/05/21 11:50:28;;;;;;;7.63;5.93;;;;;;;23.40;65.98;99378.60;1762614;80;20959;-72
2022/05/21 11:53:08;;;;;;;8.73;6.45;;;;;;;23.48;64.95;99378.09;1765311;80;21033;-74
2022/05/21 11:56:03;;;;;;;7.37;6.00;;;;;;;23.54;64.66;99372.52;1764970;80;21580;-70
2022/05/21 11:59:01;;;;;;;8.23;6.00;;;;;;;23.58;64.10;99368.47;1751746;80;21029;-70
2022/05/21 12:01:40;;;;;;;10.07;7.70;;;;;;;23.59;63.51;99370.03;1754046;80;21057;-69
2022/05/21 12:04:08;;;;;;;11.03;8.73;;;;;;;23.54;63.02;99357.53;1751527;79;21074;-73
2022/05/21 12:06:41;;;;;;;9.63;6.80;;;;;;;23.52;63.08;99350.30;1756597;80;21089;-70
2022/05/21 12:09:25;;;;;;;8.30;5.83;;;;;;;23.55;63.00;99350.14;1744945;80;21537;-70
2022/05/21 12:12:16;;;;;;;8.67;6.77;;;;;;;23.61;63.07;99343.97;1760335;80;21046;-70
2022/05/21 12:14:56;;;;;;;8.28;5.97;;;;;;;23.78;62.97;99345.91;1759776;80;21046;-69
2022/05/21 12:17:39;;;;;;;8.80;5.80;;;;;;;24.02;62.74;99327.64;1765148;80;21148;-70
2022/05/21 12:20:11;;;;;;;8.80;7.13;;;;;;;24.32;62.40;99328.84;1717871;82;21045;-71
2022/05/21 12:22:53;;;;;;;8.07;6.40;;;;;;;24.55;61.72;99320.44;1763793;80;21260;-71
2022/05/21 12:25:48;;;;;;;8.20;5.47;;;;;;;24.69;61.02;99302.56;1762166;80;21010;-70
2022/05/21 12:28:16;;;;;;;6.00;5.40;;;;;;;24.86;60.46;99292.89;1761959;80;21002;-70
2022/05/21 12:30:44;;;;;;;7.07;4.70;;;;;;;25.12;59.65;99289.89;1760894;81;20975;-70
2022/05/21 12:33:27;;;;;;;8.43;5.60;;;;;;;25.35;58.87;99275.12;1763686;80;21049;-70
2022/05/21 12:36:09;;;;;;;7.03;4.80;;;;;;;25.50;57.59;99280.22;1740056;81;21241;-70